Terminal Aerodrome Forecast
Issued by NWS Tulsa, OK

Home | Current Version | Previous Version | Text Only | Print | Product List | Glossary On
Versions: 1 2 3 4 5 6 7 8 9 10 11 12 13 14 15 16 17 18
390
FTUS44 KTSA 300839 AAE
TAFFSM
TAF AMD
KFSM 300839Z 3009/0106 27019KT P6SM -RA BKN007 BKN012 OVC025
     FM301200 22012G20KT P6SM OVC015
     FM301500 24018G26KT P6SM BKN025
     FM302000 24023G30KT P6SM BKN035
     FM010200 26020G28KT P6SM BKN050=

USA.gov is the U.S. government's official web portal to all federal, state and local government web resources and services.